Sant Martí Sacalm





Hora UTC 11:25
Temperatura 10.7 ºC
Humitat 96.4 %
Pressió 1012.7 hPa
Pluja 0.1 mm
Velocitat vent 16.9 km/h
Direcció vent E
Radiació solar 80.7 W/m²

Dades diàries 2021-05-14



Hora UTC (hivern +1h; estiu +2h)
Temperatura (ºC) Humitat (%) Pressió (hPa) Velocitat vent (km/h) Precipitació (mm) Radiació solar (W/m²)
Hora UTC Aire Humitat Pressió Vel. Dir. Vel. Max Dir. Intent. màx 5 min. Rad. Sol.
00:05 10.5 81.9 1010.6 13.9 SW 13.9 SW 0.0 0.1
00:10 10.3 82.7 1010.5 11.7 SW 16.2 WSW 0.0 0.1
00:15 10.2 83.2 1010.4 9.9 SW 13.1 SW 0.0 0.1
00:20 10.2 83.8 1010.3 12.2 SW 17.0 SW 0.0 0.1
00:25 10.1 84.7 1010.3 12.2 SW 17.7 WSW 0.0 0.1
00:30 10.1 85.0 1010.4 11.8 SW 17.3 SW 0.0 0.1
00:35 10.0 85.4 1010.3 11.1 SW 17.7 SW 0.0 0.1
00:40 10.0 85.5 1010.3 10.9 SSW 16.6 SW 0.0 0.1
00:45 10.0 86.1 1010.4 13.2 SW 17.3 SW 0.0 0.1
00:50 10.1 86.2 1010.4 13.4 SW 16.2 SW 0.0 0.1
00:55 10.1 86.3 1010.3 12.8 SSW 15.9 SW 0.0 0.1
01:00 10.0 86.7 1010.2 14.2 SW 17.7 SW 0.0 0.1
01:05 10.0 87.1 1010.2 15.1 SW 18.7 SW 0.0 0.1
01:10 10.1 87.1 1010.1 15.4 SW 19.1 SSW 0.0 0.1
01:15 10.1 87.2 1010.1 16.2 SW 19.8 SW 0.0 0.1
01:20 10.1 87.6 1010.1 14.6 SW 18.0 SW 0.0 0.1
01:25 10.1 87.9 1010.0 14.8 SW 17.3 SW 0.0 0.1
01:30 10.1 88.1 1010.0 14.6 SW 18.0 SW 0.0 0.1
01:35 10.1 88.7 1010.0 12.9 SW 16.2 SSW 0.0 0.1
01:40 10.1 88.8 1010.0 13.0 SW 15.9 SW 0.0 0.1
01:45 10.1 89.3 1010.0 12.3 SW 17.0 SW 0.0 0.1
01:50 10.1 89.3 1009.9 12.1 SW 16.6 SW 0.0 0.1
01:55 10.1 89.6 1009.9 11.1 SW 15.5 WSW 0.0 0.1
02:00 10.1 89.6 1010.0 10.0 SW 14.1 WSW 0.0 0.1
02:05 10.1 89.4 1009.9 8.0 WSW 13.1 SW 0.0 0.1
02:10 10.2 89.0 1009.9 7.3 WSW 10.6 W 0.0 0.1
02:15 10.2 88.8 1010.0 8.5 WSW 10.6 WSW 0.0 0.1
02:20 10.2 89.2 1010.0 7.2 WSW 10.3 WSW 0.0 0.1
02:25 10.2 89.2 1010.0 7.1 WSW 11.7 WSW 0.0 0.1
02:30 10.3 89.0 1010.0 8.2 SW 11.0 WSW 0.0 0.1
02:35 10.2 89.8 1010.0 6.6 SW 9.9 SW 0.0 0.1
02:40 10.1 90.2 1010.0 6.5 SW 8.1 SW 0.0 0.1
02:45 10.1 90.0 1009.9 7.7 WSW 10.6 WSW 0.0 0.1
02:50 10.2 89.8 1009.9 7.1 SW 9.5 SW 0.0 0.1
02:55 10.1 90.1 1009.9 8.0 WSW 10.6 WSW 0.0 0.1
03:00 10.2 89.8 1009.9 7.5 WSW 9.5 WSW 0.0 0.1
03:05 10.2 90.0 1009.8 7.1 WSW 8.8 WSW 0.0 0.1
03:10 10.2 90.1 1009.7 6.0 WSW 8.8 WSW 0.0 0.1
03:15 10.2 89.7 1009.7 5.9 SW 8.1 SSW 0.0 0.1
03:20 10.2 89.6 1009.6 5.8 SSW 7.8 SSW 0.0 0.1
03:25 10.2 90.0 1009.7 6.5 SW 8.5 SW 0.0 0.1
03:30 10.2 89.8 1009.8 7.9 SW 11.0 SW 0.0 0.1
03:35 10.2 90.5 1009.8 4.1 WSW 7.1 SW 0.0 0.1
03:40 10.1 90.4 1009.9 3.4 SW 6.0 SW 0.0 0.1
03:45 10.1 90.5 1009.9 4.5 SSW 6.0 SSW 0.0 0.1
03:50 10.0 90.9 1009.9 5.5 SSW 7.1 SSW 0.0 0.1
03:55 10.0 90.9 1009.9 5.6 SSW 7.1 SSW 0.0 0.1
04:00 9.9 91.5 1009.9 8.2 SW 11.0 SW 0.0 0.1
04:05 9.9 91.6 1009.9 10.4 SSW 13.8 SSW 0.0 0.1
04:10 9.8 91.5 1009.9 10.6 SW 13.1 SW 0.0 0.1
04:15 9.8 91.6 1009.8 10.0 SSW 12.4 SSW 0.0 0.1
04:20 9.8 91.9 1009.8 11.2 SW 13.1 SW 0.0 0.2
04:25 9.8 92.3 1009.9 11.5 SW 15.2 SW 0.0 0.3
04:30 9.8 92.3 1009.9 11.4 SW 14.5 SW 0.0 0.5
04:35 9.8 92.3 1009.9 9.4 SW 12.4 SW 0.0 0.7
04:40 9.7 92.5 1009.9 9.1 SW 11.7 SW 0.0 0.8
04:45 9.7 92.3 1009.9 10.5 SW 14.1 SW 0.0 1.3
04:50 9.7 92.1 1009.9 10.4 SW 13.4 SW 0.0 2.4
04:55 9.7 92.1 1009.9 8.6 SW 12.4 SW 0.0 3.2
05:00 9.7 92.3 1009.9 8.7 SW 11.7 SW 0.0 3.8
05:05 9.7 92.2 1009.9 8.6 SW 11.0 SW 0.0 4.3
05:10 9.8 91.9 1010.0 5.9 SSW 9.2 SSW 0.0 5.9
05:15 9.7 92.2 1010.1 4.8 SSW 7.1 SSW 0.0 6.0
05:20 9.7 92.5 1010.1 3.6 S 6.7 SSW 0.0 7.4
05:25 9.7 92.6 1010.1 5.1 SSW 7.4 SSW 0.0 18.8
05:30 9.7 92.4 1010.1 4.8 SSW 7.1 SSW 0.0 32.6
05:35 9.8 92.4 1010.2 2.8 SSW 5.3 SSW 0.0 38.8
05:40 9.7 92.7 1010.2 2.0 NNE 5.0 NNE 0.0 48.4
05:45 9.2 94.1 1010.2 3.4 NNE 5.3 NNE 0.0 93.2
05:50 9.3 95.6 1010.3 1.1 N 3.9 N 0.0 142.5
05:55 9.6 95.4 1010.3 1.7 SSW 4.6 SSW 0.0 90.0
06:00 9.8 94.3 1010.4 4.9 SW 7.4 SW 0.0 46.0
06:05 9.9 93.7 1010.4 6.6 SW 8.8 SSW 0.0 29.5
06:10 9.9 93.9 1010.4 6.6 SW 8.8 SW 0.0 27.3
06:15 9.9 94.5 1010.4 6.2 SW 8.5 SW 0.0 34.8
06:20 9.9 94.5 1010.5 6.6 SW 9.2 SW 0.0 76.8
06:25 10.0 94.8 1010.6 8.1 SW 11.0 SW 0.0 164.6
06:30 10.3 94.3 1010.6 9.5 SW 13.4 SW 0.0 234.2
06:35 10.4 93.9 1010.5 11.7 SW 14.5 SW 0.0 263.9
06:40 10.3 93.8 1010.6 12.3 SW 16.2 SW 0.1 166.7
06:45 10.2 94.0 1010.6 11.2 SW 14.8 SW 0.0 122.0
06:50 10.1 93.8 1010.7 10.9 SW 15.5 SW 0.0 112.2
06:55 10.0 94.0 1010.8 10.9 SW 13.4 SSW 0.0 86.2
07:00 9.9 95.1 1010.9 11.3 SW 16.2 SW 0.0 61.9
07:05 9.9 95.9 1011.0 7.5 SW 10.3 WSW 0.0 52.7
07:10 9.8 94.8 1011.0 9.2 SW 13.4 SW 0.0 30.1
07:15 9.8 92.4 1011.1 9.7 SW 13.4 SSW 0.0 15.3
07:20 9.7 93.0 1011.2 10.0 SW 13.4 SW 0.0 11.3
07:25 9.6 93.8 1011.2 9.0 SW 11.3 SW 0.0 18.5
07:30 9.6 94.7 1011.2 7.9 SSW 12.0 SSW 0.0 44.2
07:35 9.7 96.1 1011.3 2.7 WSW 7.4 SW 0.0 64.5
07:40 9.8 96.2 1011.4 0.7 NNE 4.2 NE 0.0 58.5
07:45 9.7 96.4 1011.4 0.2 NE 2.5 NE 0.0 49.6
07:50 9.6 96.7 1011.4 2.3 ESE 4.6 ESE 0.0 94.2
07:55 9.7 97.2 1011.4 6.0 S 14.8 SSW 0.0 125.7
08:00 10.0 97.5 1011.4 9.0 SW 12.0 SSW 0.0 244.9
08:05 10.2 96.3 1011.5 9.7 SW 13.8 SW 0.0 177.9
08:10 10.1 95.4 1011.6 9.6 SW 13.4 SW 0.0 39.4
08:15 10.0 95.2 1011.7 8.4 SSW 13.8 SW 0.0 49.8
08:20 10.0 95.2 1011.8 9.3 SW 12.7 SW 0.0 36.1
08:25 9.9 95.2 1011.8 12.2 SW 18.4 SSW 0.0 31.3
08:30 9.8 96.0 1011.8 12.5 SW 18.4 SW 0.0 42.8
08:35 9.8 96.8 1011.8 12.7 SW 19.4 SSW 0.0 190.1
08:40 10.0 96.6 1011.7 10.4 SSW 15.5 SW 0.0 244.3
08:45 10.2 95.9 1011.8 11.4 SW 18.0 SW 0.0 436.7
08:50 10.5 94.6 1011.8 15.2 SW 18.7 SW 0.0 472.0
08:55 11.0 93.9 1011.9 11.5 SW 15.5 WSW 0.0 839.0
09:00 11.5 92.3 1011.9 11.2 SW 19.8 SW 0.0 849.0
09:05 11.7 90.5 1011.9 9.3 SW 14.8 SW 0.0 870.0
09:10 12.2 88.7 1012.0 4.9 SW 9.9 W 0.0 649.0
09:15 12.3 86.7 1012.0 6.3 SW 11.3 WSW 0.0 321.2
09:20 12.3 86.1 1012.0 6.3 SW 14.8 SW 0.0 597.9
09:25 12.2 89.9 1012.1 3.7 NNW 8.5 SW 0.0 315.7
09:30 11.7 91.7 1012.1 3.2 N 7.8 NNE 0.0 284.3
09:35 11.9 92.3 1012.1 2.4 ENE 6.4 E 0.0 512.7
09:40 12.6 90.2 1012.1 2.6 NNW 6.7 W 0.0 606.5
09:45 12.5 90.0 1012.2 4.4 N 10.6 NE 0.0 383.5
09:50 12.7 89.1 1012.2 4.5 NE 9.9 NNE 0.0 423.1
09:55 12.9 89.1 1012.2 5.5 NNE 11.3 N 0.0 507.7
10:00 12.3 91.2 1012.2 11.0 NNE 18.4 NE 0.0 126.1
10:05 11.7 93.3 1012.3 10.7 NE 16.2 ENE 0.0 45.6
10:10 11.4 94.1 1012.3 10.1 ENE 17.7 NE 0.0 117.5
10:15 11.5 94.2 1012.3 11.6 ENE 18.4 ENE 0.0 83.3
10:20 11.5 93.1 1012.4 6.5 E 10.6 E 0.0 81.3
10:25 11.4 93.1 1012.4 8.2 ENE 13.8 E 0.0 109.0
10:30 11.5 93.1 1012.4 10.6 ENE 16.6 ENE 0.0 144.9
10:35 11.4 93.2 1012.3 11.5 ENE 18.4 ENE 0.0 222.9
10:40 11.3 92.8 1012.4 14.4 ENE 22.2 ENE 0.0 98.3
10:45 11.1 93.8 1012.4 14.3 ENE 22.6 NE 0.0 59.0
10:50 10.8 95.0 1012.5 11.9 ENE 18.4 ENE 0.0 86.5
10:55 10.9 95.6 1012.6 10.7 E 17.7 ENE 0.0 292.5
11:00 11.3 94.7 1012.7 6.5 E 13.8 E 0.0 97.5
11:05 11.1 94.6 1012.6 12.9 E 22.2 ESE 0.0 284.8
11:10 11.1 95.1 1012.7 12.9 E 18.7 ESE 0.0 124.9
11:15 11.1 94.8 1012.6 15.1 E 23.7 E 0.0 83.7
11:20 10.9 95.3 1012.5 17.8 E 26.8 E 0.0 67.5
11:25 10.7 96.4 1012.7 16.9 E 24.0 E 0.0 80.7
Màxima 13.0 97.5 1012.7 17.8 E 26.8 E 0.1 870.0
Mínima 9.1 81.9 1009.6
Total 0.1